SAS525 ESSA-ENBR
Flight info
| Callsign | SAS525 |
|---|---|
| Flight time | 1h 18m |
| Altitude | 30000 |
| Route | ARS N623 IBGAX DCT EBURI N623 ESEBA DCT ATLAP DCT PESUR |
| Aircraft | RJ70/M-SDFGIRWY/LB1 |
Departure
| Time | 2026-05-08 02:40 |
|---|---|
| Airport | Stockholm-Arlanda Airport (ESSA) |
Arrival
| Time | 2026-05-08 03:58 |
|---|---|
| Airport | Bergen Airport, Flesland (ENBR) |
| Time | Latitude | Longitude | Altitude | Speed | Heading |
|---|---|---|---|---|---|
| 2026-05-08 02:22 | 59.64845 | 17.92530 | 137 ft | 0 kts | 160° |
| 2026-05-08 02:27 | 59.64847 | 17.92528 | 137 ft | 1 kts | 160° |
| 2026-05-08 02:27 | 59.64863 | 17.92520 | 137 ft | 3 kts | 172° |
| 2026-05-08 02:27 | 59.64883 | 17.92520 | 137 ft | 2 kts | 192° |
| 2026-05-08 02:28 | 59.64901 | 17.92536 | 137 ft | 2 kts | 221° |
| 2026-05-08 02:28 | 59.64909 | 17.92564 | 137 ft | 1 kts | 264° |
| 2026-05-08 02:28 | 59.64910 | 17.92570 | 137 ft | 3 kts | 268° |
| 2026-05-08 02:33 | 59.64909 | 17.92565 | 137 ft | 2 kts | 266° |
| 2026-05-08 02:33 | 59.64908 | 17.92506 | 137 ft | 7 kts | 269° |
| 2026-05-08 02:33 | 59.64911 | 17.92395 | 137 ft | 7 kts | 290° |
| 2026-05-08 02:33 | 59.64947 | 17.92305 | 137 ft | 9 kts | 327° |
| 2026-05-08 02:34 | 59.65008 | 17.92309 | 137 ft | 10 kts | 20° |
| 2026-05-08 02:34 | 59.65072 | 17.92338 | 137 ft | 11 kts | 8° |
| 2026-05-08 02:34 | 59.65172 | 17.92373 | 137 ft | 17 kts | 16° |
| 2026-05-08 02:34 | 59.65282 | 17.92440 | 137 ft | 16 kts | 20° |
| 2026-05-08 02:35 | 59.65371 | 17.92560 | 137 ft | 15 kts | 44° |
| 2026-05-08 02:35 | 59.65435 | 17.92723 | 137 ft | 14 kts | 62° |
| 2026-05-08 02:35 | 59.65480 | 17.92929 | 137 ft | 18 kts | 68° |
| 2026-05-08 02:35 | 59.65514 | 17.93166 | 137 ft | 19 kts | 76° |
| 2026-05-08 02:36 | 59.65544 | 17.93405 | 137 ft | 17 kts | 76° |
| 2026-05-08 02:36 | 59.65573 | 17.93635 | 137 ft | 18 kts | 76° |
| 2026-05-08 02:36 | 59.65608 | 17.93918 | 137 ft | 24 kts | 74° |
| 2026-05-08 02:36 | 59.65652 | 17.94266 | 137 ft | 26 kts | 76° |
| 2026-05-08 02:37 | 59.65699 | 17.94621 | 137 ft | 26 kts | 75° |
| 2026-05-08 02:37 | 59.65741 | 17.94949 | 138 ft | 23 kts | 76° |
| 2026-05-08 02:37 | 59.65677 | 17.95185 | 138 ft | 22 kts | 165° |
| 2026-05-08 02:37 | 59.65531 | 17.95259 | 138 ft | 22 kts | 164° |
| 2026-05-08 02:38 | 59.65384 | 17.95337 | 137 ft | 22 kts | 165° |
| 2026-05-08 02:38 | 59.65237 | 17.95414 | 137 ft | 22 kts | 165° |
| 2026-05-08 02:38 | 59.65083 | 17.95492 | 137 ft | 23 kts | 166° |
| 2026-05-08 02:38 | 59.64955 | 17.95617 | 138 ft | 19 kts | 131° |
| 2026-05-08 02:39 | 59.64948 | 17.95649 | 138 ft | 0 kts | 97° |
| 2026-05-08 02:39 | 59.64943 | 17.95729 | 138 ft | 11 kts | 99° |
| 2026-05-08 02:39 | 59.64898 | 17.95859 | 140 ft | 12 kts | 146° |
| 2026-05-08 02:39 | 59.64803 | 17.95868 | 142 ft | 25 kts | 190° |
| 2026-05-08 02:40 | 59.64331 | 17.95691 | 145 ft | 109 kts | 190° |
| 2026-05-08 02:40 | 59.63416 | 17.95370 | 317 ft | 150 kts | 188° |
| 2026-05-08 02:40 | 59.62390 | 17.94912 | 1088 ft | 143 kts | 193° |
| 2026-05-08 02:40 | 59.61443 | 17.94511 | 1681 ft | 141 kts | 192° |
| 2026-05-08 02:41 | 59.60473 | 17.94035 | 2029 ft | 152 kts | 193° |
| 2026-05-08 02:41 | 59.59389 | 17.93521 | 2271 ft | 171 kts | 192° |
| 2026-05-08 02:41 | 59.58144 | 17.92884 | 2532 ft | 196 kts | 199° |
| 2026-05-08 02:41 | 59.57040 | 17.91193 | 2853 ft | 214 kts | 238° |
| 2026-05-08 02:42 | 59.56326 | 17.88529 | 3183 ft | 230 kts | 243° |
| 2026-05-08 02:42 | 59.55599 | 17.85597 | 3512 ft | 244 kts | 244° |
| 2026-05-08 02:42 | 59.54868 | 17.82474 | 3858 ft | 257 kts | 244° |
| 2026-05-08 02:42 | 59.54180 | 17.79172 | 4343 ft | 261 kts | 255° |
| 2026-05-08 02:43 | 59.54143 | 17.75561 | 4830 ft | 267 kts | 276° |
| 2026-05-08 02:43 | 59.54352 | 17.71967 | 5375 ft | 268 kts | 276° |
| 2026-05-08 02:43 | 59.54548 | 17.68296 | 5953 ft | 269 kts | 276° |
| 2026-05-08 02:43 | 59.54760 | 17.64604 | 6584 ft | 270 kts | 277° |
| 2026-05-08 02:44 | 59.54973 | 17.60907 | 7209 ft | 271 kts | 277° |
| 2026-05-08 02:44 | 59.55168 | 17.57238 | 7869 ft | 272 kts | 276° |
| 2026-05-08 02:44 | 59.55355 | 17.53526 | 8575 ft | 272 kts | 276° |
| 2026-05-08 02:44 | 59.55535 | 17.49800 | 9319 ft | 273 kts | 276° |
| 2026-05-08 02:45 | 59.55693 | 17.46055 | 10112 ft | 274 kts | 276° |
| 2026-05-08 02:45 | 59.55847 | 17.42354 | 10832 ft | 276 kts | 276° |
| 2026-05-08 02:45 | 59.56003 | 17.38543 | 11496 ft | 282 kts | 275° |
| 2026-05-08 02:45 | 59.56155 | 17.34571 | 11865 ft | 297 kts | 275° |
| 2026-05-08 02:46 | 59.56311 | 17.30449 | 12180 ft | 311 kts | 275° |
| 2026-05-08 02:46 | 59.56474 | 17.26132 | 12635 ft | 317 kts | 275° |
| 2026-05-08 02:46 | 59.56642 | 17.21748 | 13178 ft | 320 kts | 275° |
| 2026-05-08 02:46 | 59.56806 | 17.17385 | 13702 ft | 322 kts | 275° |
| 2026-05-08 02:47 | 59.56978 | 17.12954 | 14178 ft | 325 kts | 275° |
| 2026-05-08 02:47 | 59.57153 | 17.08486 | 14614 ft | 326 kts | 275° |
| 2026-05-08 02:47 | 59.57327 | 17.04058 | 15059 ft | 327 kts | 275° |
| 2026-05-08 02:47 | 59.57504 | 16.99571 | 15492 ft | 328 kts | 275° |
| 2026-05-08 02:48 | 59.57681 | 16.95042 | 15922 ft | 330 kts | 275° |
| 2026-05-08 02:48 | 59.57858 | 16.90510 | 16350 ft | 331 kts | 275° |
| 2026-05-08 02:48 | 59.58023 | 16.86033 | 16761 ft | 332 kts | 274° |
| 2026-05-08 02:48 | 59.58176 | 16.81461 | 17179 ft | 334 kts | 275° |
| 2026-05-08 02:49 | 59.58347 | 16.76883 | 17582 ft | 335 kts | 275° |
| 2026-05-08 02:49 | 59.58499 | 16.72272 | 18009 ft | 337 kts | 274° |
| 2026-05-08 02:49 | 59.58587 | 16.67691 | 18413 ft | 338 kts | 272° |
| 2026-05-08 02:49 | 59.58750 | 16.63048 | 18765 ft | 339 kts | 278° |
| 2026-05-08 02:50 | 59.59154 | 16.58425 | 19094 ft | 341 kts | 281° |
| 2026-05-08 02:50 | 59.59628 | 16.53826 | 19426 ft | 342 kts | 282° |
| 2026-05-08 02:50 | 59.60121 | 16.49263 | 19764 ft | 344 kts | 282° |
| 2026-05-08 02:50 | 59.60622 | 16.44617 | 20103 ft | 345 kts | 282° |
| 2026-05-08 02:51 | 59.61107 | 16.40008 | 20422 ft | 347 kts | 282° |
| 2026-05-08 02:51 | 59.61596 | 16.35312 | 20752 ft | 348 kts | 282° |
| 2026-05-08 02:51 | 59.62066 | 16.30585 | 21067 ft | 350 kts | 281° |
| 2026-05-08 02:51 | 59.62528 | 16.25908 | 21388 ft | 352 kts | 282° |
| 2026-05-08 02:52 | 59.63008 | 16.21157 | 21697 ft | 353 kts | 282° |
| 2026-05-08 02:52 | 59.63527 | 16.16387 | 22006 ft | 355 kts | 283° |
| 2026-05-08 02:52 | 59.64080 | 16.11605 | 22311 ft | 356 kts | 283° |
| 2026-05-08 02:52 | 59.64641 | 16.06820 | 22604 ft | 358 kts | 284° |
| 2026-05-08 02:53 | 59.65203 | 16.02058 | 22908 ft | 360 kts | 284° |
| 2026-05-08 02:53 | 59.65771 | 15.97221 | 23210 ft | 361 kts | 284° |
| 2026-05-08 02:53 | 59.66326 | 15.92353 | 23499 ft | 363 kts | 283° |
| 2026-05-08 02:53 | 59.66874 | 15.87466 | 23778 ft | 364 kts | 283° |
| 2026-05-08 02:54 | 59.67429 | 15.82617 | 24001 ft | 366 kts | 283° |
| 2026-05-08 02:54 | 59.67977 | 15.77677 | 24252 ft | 367 kts | 283° |
| 2026-05-08 02:54 | 59.68523 | 15.72713 | 24503 ft | 368 kts | 283° |
| 2026-05-08 02:54 | 59.69065 | 15.67743 | 24748 ft | 369 kts | 283° |
| 2026-05-08 02:55 | 59.69611 | 15.62760 | 24938 ft | 371 kts | 283° |
| 2026-05-08 02:55 | 59.70707 | 15.52803 | 25524 ft | 370 kts | 283° |
| 2026-05-08 02:55 | 59.71262 | 15.47825 | 25831 ft | 369 kts | 283° |
| 2026-05-08 02:56 | 59.71800 | 15.42914 | 26124 ft | 368 kts | 283° |
| 2026-05-08 02:56 | 59.72341 | 15.37951 | 26423 ft | 367 kts | 282° |
| 2026-05-08 02:56 | 59.72879 | 15.32997 | 26717 ft | 365 kts | 282° |
| 2026-05-08 02:56 | 59.73406 | 15.28145 | 27014 ft | 364 kts | 282° |
| 2026-05-08 02:57 | 59.73938 | 15.23223 | 27305 ft | 363 kts | 282° |
| 2026-05-08 02:57 | 59.74479 | 15.18298 | 27541 ft | 364 kts | 282° |
| 2026-05-08 02:57 | 59.75010 | 15.13383 | 27821 ft | 363 kts | 282° |
| 2026-05-08 02:57 | 59.75516 | 15.08537 | 28096 ft | 362 kts | 281° |
| 2026-05-08 02:58 | 59.76027 | 15.03640 | 28356 ft | 361 kts | 282° |
| 2026-05-08 02:58 | 59.76544 | 14.98754 | 28623 ft | 361 kts | 281° |
| 2026-05-08 02:58 | 59.77047 | 14.93909 | 28884 ft | 360 kts | 281° |
| 2026-05-08 02:58 | 59.77553 | 14.89042 | 29138 ft | 359 kts | 282° |
| 2026-05-08 02:59 | 59.78058 | 14.84173 | 29410 ft | 358 kts | 281° |
| 2026-05-08 02:59 | 59.78550 | 14.79395 | 29670 ft | 357 kts | 281° |
| 2026-05-08 02:59 | 59.79054 | 14.74540 | 29932 ft | 356 kts | 282° |
| 2026-05-08 02:59 | 59.79550 | 14.69773 | 30150 ft | 353 kts | 281° |
| 2026-05-08 03:00 | 59.80046 | 14.64969 | 30234 ft | 355 kts | 281° |
| 2026-05-08 03:00 | 59.81046 | 14.55250 | 30258 ft | 364 kts | 281° |
| 2026-05-08 03:01 | 59.82083 | 14.45282 | 30258 ft | 368 kts | 280° |
| 2026-05-08 03:01 | 59.83076 | 14.35343 | 30253 ft | 368 kts | 281° |
| 2026-05-08 03:02 | 59.84104 | 14.25210 | 30243 ft | 368 kts | 280° |
| 2026-05-08 03:02 | 59.85086 | 14.15378 | 30245 ft | 369 kts | 279° |
| 2026-05-08 03:03 | 59.86073 | 14.05379 | 30237 ft | 370 kts | 279° |
| 2026-05-08 03:03 | 59.87064 | 13.95298 | 30241 ft | 370 kts | 279° |
| 2026-05-08 03:04 | 59.88053 | 13.85263 | 30239 ft | 372 kts | 279° |
| 2026-05-08 03:04 | 59.89012 | 13.75095 | 30239 ft | 374 kts | 278° |
| 2026-05-08 03:05 | 59.89983 | 13.64953 | 30236 ft | 373 kts | 278° |
| 2026-05-08 03:05 | 59.90936 | 13.54760 | 30238 ft | 373 kts | 278° |
| 2026-05-08 03:06 | 59.91881 | 13.44645 | 30236 ft | 373 kts | 278° |
| 2026-05-08 03:06 | 59.92824 | 13.34448 | 30238 ft | 374 kts | 278° |
| 2026-05-08 03:07 | 59.93774 | 13.24231 | 30242 ft | 374 kts | 278° |
| 2026-05-08 03:07 | 59.94734 | 13.14095 | 30237 ft | 373 kts | 278° |
| 2026-05-08 03:08 | 59.95639 | 13.03885 | 30230 ft | 373 kts | 277° |
| 2026-05-08 03:08 | 59.96550 | 12.93696 | 30234 ft | 373 kts | 277° |
| 2026-05-08 03:09 | 59.97448 | 12.83514 | 30232 ft | 374 kts | 277° |
| 2026-05-08 03:09 | 59.98347 | 12.73279 | 30231 ft | 374 kts | 277° |
| 2026-05-08 03:10 | 59.99229 | 12.63058 | 30233 ft | 373 kts | 277° |
| 2026-05-08 03:10 | 60.00099 | 12.52827 | 30231 ft | 374 kts | 277° |
| 2026-05-08 03:11 | 60.00961 | 12.42617 | 30229 ft | 374 kts | 277° |
| 2026-05-08 03:11 | 60.01748 | 12.32326 | 30229 ft | 373 kts | 275° |
| 2026-05-08 03:12 | 60.02362 | 12.22060 | 30225 ft | 373 kts | 274° |
| 2026-05-08 03:12 | 60.02942 | 12.11760 | 30226 ft | 373 kts | 275° |
| 2026-05-08 03:13 | 60.03459 | 12.03152 | 30225 ft | 373 kts | 274° |
| 2026-05-08 03:13 | 60.04049 | 11.92843 | 30221 ft | 373 kts | 274° |
| 2026-05-08 03:14 | 60.04646 | 11.82542 | 30219 ft | 374 kts | 274° |
| 2026-05-08 03:14 | 60.05245 | 11.72189 | 30218 ft | 374 kts | 274° |
| 2026-05-08 03:15 | 60.05838 | 11.61869 | 30213 ft | 374 kts | 274° |
| 2026-05-08 03:15 | 60.06391 | 11.51605 | 30216 ft | 373 kts | 274° |
| 2026-05-08 03:16 | 60.06953 | 11.41267 | 30224 ft | 374 kts | 274° |
| 2026-05-08 03:16 | 60.07503 | 11.30918 | 30215 ft | 374 kts | 273° |
| 2026-05-08 03:17 | 60.08032 | 11.20585 | 30187 ft | 374 kts | 273° |
| 2026-05-08 03:17 | 60.08550 | 11.10306 | 30187 ft | 373 kts | 273° |
| 2026-05-08 03:18 | 60.09068 | 10.99962 | 30185 ft | 373 kts | 273° |
| 2026-05-08 03:18 | 60.09583 | 10.89581 | 30192 ft | 374 kts | 272° |
| 2026-05-08 03:19 | 60.10097 | 10.79275 | 30183 ft | 374 kts | 273° |
| 2026-05-08 03:19 | 60.10604 | 10.68942 | 30218 ft | 374 kts | 272° |
| 2026-05-08 03:20 | 60.11133 | 10.58556 | 30202 ft | 374 kts | 272° |
| 2026-05-08 03:20 | 60.11610 | 10.48216 | 30212 ft | 374 kts | 272° |
| 2026-05-08 03:21 | 60.12088 | 10.37841 | 30217 ft | 374 kts | 272° |
| 2026-05-08 03:21 | 60.12559 | 10.27455 | 30217 ft | 374 kts | 271° |
| 2026-05-08 03:22 | 60.13019 | 10.17101 | 30218 ft | 374 kts | 271° |
| 2026-05-08 03:22 | 60.13470 | 10.06756 | 30218 ft | 374 kts | 272° |
| 2026-05-08 03:23 | 60.13921 | 9.96396 | 30219 ft | 375 kts | 271° |
| 2026-05-08 03:23 | 60.14379 | 9.85961 | 30207 ft | 375 kts | 271° |
| 2026-05-08 03:24 | 60.14834 | 9.75536 | 30218 ft | 375 kts | 271° |
| 2026-05-08 03:24 | 60.15271 | 9.65097 | 30205 ft | 375 kts | 271° |
| 2026-05-08 03:25 | 60.15700 | 9.54696 | 30197 ft | 375 kts | 271° |
| 2026-05-08 03:25 | 60.16105 | 9.44304 | 30213 ft | 375 kts | 271° |
| 2026-05-08 03:26 | 60.16519 | 9.33860 | 30216 ft | 375 kts | 270° |
| 2026-05-08 03:26 | 60.16896 | 9.23415 | 30203 ft | 375 kts | 270° |
| 2026-05-08 03:27 | 60.17289 | 9.12951 | 30206 ft | 376 kts | 270° |
| 2026-05-08 03:27 | 60.17675 | 9.02501 | 30208 ft | 376 kts | 270° |
| 2026-05-08 03:28 | 60.18045 | 8.92076 | 30198 ft | 376 kts | 270° |
| 2026-05-08 03:28 | 60.18414 | 8.81606 | 30205 ft | 375 kts | 270° |
| 2026-05-08 03:29 | 60.18776 | 8.71144 | 30203 ft | 375 kts | 270° |
| 2026-05-08 03:29 | 60.19121 | 8.60742 | 30209 ft | 376 kts | 270° |
| 2026-05-08 03:30 | 60.19640 | 8.45012 | 30200 ft | 376 kts | 270° |
| 2026-05-08 03:31 | 60.20326 | 8.24035 | 30204 ft | 378 kts | 270° |
| 2026-05-08 03:32 | 60.20797 | 8.08272 | 30203 ft | 378 kts | 269° |
| 2026-05-08 03:32 | 60.21091 | 7.97707 | 30207 ft | 378 kts | 269° |
| 2026-05-08 03:33 | 60.21386 | 7.87158 | 30199 ft | 378 kts | 269° |
| 2026-05-08 03:33 | 60.21664 | 7.76610 | 30201 ft | 378 kts | 269° |
| 2026-05-08 03:34 | 60.21944 | 7.66126 | 30186 ft | 378 kts | 269° |
| 2026-05-08 03:34 | 60.22215 | 7.55541 | 29980 ft | 381 kts | 269° |
| 2026-05-08 03:34 | 60.22344 | 7.50206 | 29392 ft | 384 kts | 269° |
| 2026-05-08 03:35 | 60.22480 | 7.44893 | 28626 ft | 368 kts | 276° |
| 2026-05-08 03:35 | 60.22506 | 7.39754 | 27659 ft | 372 kts | 272° |
| 2026-05-08 03:35 | 60.22494 | 7.34579 | 26854 ft | 369 kts | 274° |
| 2026-05-08 03:35 | 60.22547 | 7.29439 | 25947 ft | 368 kts | 275° |
| 2026-05-08 03:36 | 60.22642 | 7.24346 | 25211 ft | 370 kts | 275° |
| 2026-05-08 03:36 | 60.22755 | 7.19165 | 24499 ft | 372 kts | 275° |
| 2026-05-08 03:36 | 60.22879 | 7.13948 | 23821 ft | 374 kts | 274° |
| 2026-05-08 03:36 | 60.23007 | 7.08720 | 23042 ft | 373 kts | 274° |
| 2026-05-08 03:37 | 60.23136 | 7.03550 | 22261 ft | 367 kts | 274° |
| 2026-05-08 03:37 | 60.23256 | 6.98449 | 21510 ft | 363 kts | 274° |
| 2026-05-08 03:37 | 60.23369 | 6.93406 | 20744 ft | 359 kts | 274° |
| 2026-05-08 03:37 | 60.23471 | 6.88422 | 20007 ft | 354 kts | 274° |
| 2026-05-08 03:38 | 60.23566 | 6.83534 | 19300 ft | 351 kts | 274° |
| 2026-05-08 03:38 | 60.23656 | 6.78676 | 18613 ft | 347 kts | 274° |
| 2026-05-08 03:38 | 60.23734 | 6.73854 | 17863 ft | 343 kts | 274° |
| 2026-05-08 03:38 | 60.23810 | 6.69110 | 17120 ft | 340 kts | 274° |
| 2026-05-08 03:39 | 60.23896 | 6.64370 | 16412 ft | 337 kts | 273° |
| 2026-05-08 03:39 | 60.24082 | 6.59686 | 15815 ft | 336 kts | 282° |
| 2026-05-08 03:39 | 60.24814 | 6.55164 | 15253 ft | 341 kts | 292° |
| 2026-05-08 03:39 | 60.25760 | 6.50849 | 14626 ft | 340 kts | 295° |
| 2026-05-08 03:40 | 60.26793 | 6.46582 | 14010 ft | 338 kts | 296° |
| 2026-05-08 03:40 | 60.27869 | 6.42392 | 13287 ft | 335 kts | 296° |
| 2026-05-08 03:40 | 60.28938 | 6.38233 | 12600 ft | 332 kts | 296° |
| 2026-05-08 03:40 | 60.29986 | 6.34140 | 11898 ft | 320 kts | 296° |
| 2026-05-08 03:41 | 60.30952 | 6.30263 | 11173 ft | 306 kts | 296° |
| 2026-05-08 03:41 | 60.31885 | 6.26390 | 10494 ft | 308 kts | 295° |
| 2026-05-08 03:41 | 60.32807 | 6.22556 | 10222 ft | 297 kts | 295° |
| 2026-05-08 03:41 | 60.33688 | 6.18897 | 10101 ft | 283 kts | 295° |
| 2026-05-08 03:42 | 60.34521 | 6.15348 | 10056 ft | 285 kts | 294° |
| 2026-05-08 03:42 | 60.35394 | 6.11726 | 9923 ft | 288 kts | 296° |
| 2026-05-08 03:42 | 60.36341 | 6.08188 | 9728 ft | 285 kts | 295° |
| 2026-05-08 03:42 | 60.37211 | 6.04587 | 9550 ft | 284 kts | 294° |
| 2026-05-08 03:43 | 60.38053 | 6.00981 | 9408 ft | 284 kts | 294° |
| 2026-05-08 03:43 | 60.38903 | 5.97368 | 9265 ft | 284 kts | 293° |
| 2026-05-08 03:43 | 60.39746 | 5.93759 | 9125 ft | 283 kts | 293° |
| 2026-05-08 03:43 | 60.40585 | 5.90172 | 8985 ft | 284 kts | 293° |
| 2026-05-08 03:44 | 60.41427 | 5.86566 | 8834 ft | 283 kts | 293° |
| 2026-05-08 03:44 | 60.42279 | 5.83004 | 8704 ft | 283 kts | 293° |
| 2026-05-08 03:44 | 60.43143 | 5.79416 | 8552 ft | 283 kts | 293° |
| 2026-05-08 03:44 | 60.44005 | 5.75843 | 8386 ft | 281 kts | 292° |
| 2026-05-08 03:45 | 60.44835 | 5.72332 | 8180 ft | 264 kts | 292° |
| 2026-05-08 03:45 | 60.45596 | 5.69115 | 7897 ft | 253 kts | 291° |
| 2026-05-08 03:45 | 60.46337 | 5.65944 | 7761 ft | 251 kts | 291° |
| 2026-05-08 03:45 | 60.47296 | 5.62989 | 7683 ft | 257 kts | 316° |
| 2026-05-08 03:46 | 60.48930 | 5.61460 | 7586 ft | 266 kts | 349° |
| 2026-05-08 03:46 | 60.50777 | 5.61048 | 7473 ft | 268 kts | 355° |
| 2026-05-08 03:46 | 60.52640 | 5.60808 | 7331 ft | 268 kts | 352° |
| 2026-05-08 03:46 | 60.54461 | 5.60102 | 7189 ft | 266 kts | 345° |
| 2026-05-08 03:47 | 60.56253 | 5.59152 | 7024 ft | 266 kts | 341° |
| 2026-05-08 03:47 | 60.58003 | 5.57999 | 6855 ft | 264 kts | 332° |
| 2026-05-08 03:47 | 60.59556 | 5.56178 | 6683 ft | 259 kts | 322° |
| 2026-05-08 03:47 | 60.61025 | 5.54063 | 6511 ft | 258 kts | 319° |
| 2026-05-08 03:48 | 60.62446 | 5.51836 | 6327 ft | 257 kts | 315° |
| 2026-05-08 03:48 | 60.63623 | 5.49164 | 6191 ft | 252 kts | 300° |
| 2026-05-08 03:48 | 60.64611 | 5.46224 | 6038 ft | 251 kts | 297° |
| 2026-05-08 03:48 | 60.65541 | 5.43209 | 5903 ft | 251 kts | 294° |
| 2026-05-08 03:49 | 60.66298 | 5.40066 | 5753 ft | 243 kts | 278° |
| 2026-05-08 03:49 | 60.66713 | 5.36739 | 5577 ft | 242 kts | 272° |
| 2026-05-08 03:49 | 60.67005 | 5.33419 | 5417 ft | 237 kts | 263° |
| 2026-05-08 03:49 | 60.66610 | 5.30391 | 5331 ft | 215 kts | 223° |
| 2026-05-08 03:50 | 60.65409 | 5.28820 | 5310 ft | 206 kts | 192° |
| 2026-05-08 03:50 | 60.64012 | 5.28044 | 5153 ft | 209 kts | 186° |
| 2026-05-08 03:50 | 60.62578 | 5.27533 | 4985 ft | 210 kts | 181° |
| 2026-05-08 03:50 | 60.61128 | 5.27255 | 4811 ft | 209 kts | 177° |
| 2026-05-08 03:51 | 60.59672 | 5.27140 | 4591 ft | 209 kts | 175° |
| 2026-05-08 03:51 | 60.58223 | 5.26843 | 4281 ft | 213 kts | 193° |
| 2026-05-08 03:51 | 60.56909 | 5.25433 | 4040 ft | 211 kts | 200° |
| 2026-05-08 03:51 | 60.55636 | 5.24055 | 3896 ft | 209 kts | 199° |
| 2026-05-08 03:52 | 60.54339 | 5.22702 | 3727 ft | 210 kts | 199° |
| 2026-05-08 03:52 | 60.53041 | 5.21353 | 3573 ft | 209 kts | 199° |
| 2026-05-08 03:52 | 60.51742 | 5.20019 | 3416 ft | 209 kts | 200° |
| 2026-05-08 03:52 | 60.50450 | 5.18668 | 3278 ft | 209 kts | 200° |
| 2026-05-08 03:53 | 60.49148 | 5.17351 | 3132 ft | 209 kts | 200° |
| 2026-05-08 03:53 | 60.47849 | 5.16090 | 3036 ft | 204 kts | 194° |
| 2026-05-08 03:53 | 60.46523 | 5.16101 | 3061 ft | 188 kts | 160° |
| 2026-05-08 03:53 | 60.45285 | 5.16561 | 3006 ft | 178 kts | 173° |
| 2026-05-08 03:54 | 60.44135 | 5.16780 | 3072 ft | 153 kts | 169° |
| 2026-05-08 03:54 | 60.43154 | 5.17104 | 2815 ft | 135 kts | 168° |
| 2026-05-08 03:54 | 60.42288 | 5.17420 | 2636 ft | 119 kts | 168° |
| 2026-05-08 03:54 | 60.41487 | 5.17707 | 2447 ft | 115 kts | 168° |
| 2026-05-08 03:55 | 60.40698 | 5.17979 | 2330 ft | 116 kts | 169° |
| 2026-05-08 03:55 | 60.39894 | 5.18255 | 2184 ft | 117 kts | 170° |
| 2026-05-08 03:55 | 60.39091 | 5.18522 | 2000 ft | 117 kts | 172° |
| 2026-05-08 03:55 | 60.38295 | 5.18775 | 1853 ft | 115 kts | 171° |
| 2026-05-08 03:56 | 60.37506 | 5.19041 | 1724 ft | 116 kts | 171° |
| 2026-05-08 03:56 | 60.36705 | 5.19350 | 1581 ft | 117 kts | 170° |
| 2026-05-08 03:56 | 60.35914 | 5.19626 | 1473 ft | 117 kts | 171° |
| 2026-05-08 03:56 | 60.35107 | 5.19898 | 1287 ft | 118 kts | 171° |
| 2026-05-08 03:57 | 60.34294 | 5.20187 | 1079 ft | 119 kts | 170° |
| 2026-05-08 03:57 | 60.33474 | 5.20452 | 869 ft | 120 kts | 170° |
| 2026-05-08 03:57 | 60.32640 | 5.20716 | 697 ft | 122 kts | 168° |
| 2026-05-08 03:57 | 60.31793 | 5.21014 | 512 ft | 125 kts | 170° |
| 2026-05-08 03:58 | 60.30933 | 5.21285 | 315 ft | 125 kts | 170° |
| 2026-05-08 03:58 | 60.30094 | 5.21570 | 167 ft | 112 kts | 171° |
| 2026-05-08 03:58 | 60.29447 | 5.21782 | 154 ft | 68 kts | 171° |
| 2026-05-08 03:58 | 60.29109 | 5.21895 | 153 ft | 39 kts | 171° |
| 2026-05-08 03:59 | 60.28926 | 5.21997 | 149 ft | 21 kts | 123° |
| 2026-05-08 03:59 | 60.28925 | 5.22254 | 150 ft | 11 kts | 69° |
| 2026-05-08 03:59 | 60.28951 | 5.22362 | 150 ft | 8 kts | 34° |
| 2026-05-08 03:59 | 60.28993 | 5.22388 | 151 ft | 6 kts | 5° |
| 2026-05-08 04:00 | 60.29028 | 5.22405 | 151 ft | 5 kts | 43° |
| 2026-05-08 04:00 | 60.29039 | 5.22493 | 151 ft | 8 kts | 83° |
| 2026-05-08 04:00 | 60.29030 | 5.22608 | 151 ft | 9 kts | 138° |
| 2026-05-08 04:00 | 60.28997 | 5.22626 | 151 ft | 5 kts | 182° |
| 2026-05-08 04:01 | 60.28988 | 5.22626 | 151 ft | 0 kts | 180° |